createdAt,value
2022-12-04T00:01:18.472Z,11.73
2022-12-04T00:03:45.736Z,12.57
2022-12-04T00:06:14.738Z,10.63
2022-12-04T00:08:41.782Z,10.07
2022-12-04T00:11:09.477Z,10.55
2022-12-04T00:13:36.709Z,11.90
2022-12-04T00:16:08.246Z,11.48
2022-12-04T00:18:35.615Z,11.18
2022-12-04T00:21:06.595Z,13.63
2022-12-04T00:23:34.158Z,11.43
2022-12-04T00:26:02.169Z,11.43
2022-12-04T00:28:29.154Z,10.55
2022-12-04T00:30:56.218Z,11.38
2022-12-04T00:33:23.356Z,12.63
2022-12-04T00:36:00.221Z,11.90
2022-12-04T00:38:27.425Z,14.75
2022-12-04T00:40:54.492Z,11.70
2022-12-04T00:43:21.819Z,10.48
2022-12-04T00:45:49.845Z,11.38
2022-12-04T00:48:16.844Z,11.00
2022-12-04T00:50:43.776Z,10.57
2022-12-04T00:53:11.077Z,12.00
2022-12-04T00:55:39.356Z,11.45
2022-12-04T00:58:07.972Z,11.27
2022-12-04T01:00:36.144Z,14.30
2022-12-04T01:03:04.653Z,10.20
2022-12-04T01:05:31.858Z,12.35
2022-12-04T01:07:58.972Z,16.15
2022-12-04T01:10:26.004Z,12.63
2022-12-04T01:12:56.014Z,11.77
2022-12-04T01:15:22.984Z,11.15
2022-12-04T01:17:50.447Z,11.10
2022-12-04T01:20:17.468Z,10.43
2022-12-04T01:22:44.485Z,11.30
2022-12-04T01:25:11.533Z,10.52
2022-12-04T01:27:38.609Z,13.60
2022-12-04T01:30:06.384Z,10.98
2022-12-04T01:32:33.405Z,9.43
2022-12-04T01:35:00.460Z,9.48
2022-12-04T01:37:27.409Z,9.70
2022-12-04T01:39:54.548Z,9.52
2022-12-04T01:42:21.769Z,8.80
2022-12-04T01:45:26.822Z,10.23
2022-12-04T01:47:54.671Z,9.40
2022-12-04T01:50:22.149Z,9.07
2022-12-04T01:52:49.238Z,8.68
2022-12-04T01:55:16.357Z,9.98
2022-12-04T01:57:43.730Z,8.93
2022-12-04T02:00:15.649Z,10.48
2022-12-04T02:02:43.955Z,9.75
2022-12-04T02:05:13.390Z,11.05
2022-12-04T02:07:40.774Z,12.45
2022-12-04T02:10:09.019Z,16.77
2022-12-04T02:12:48.619Z,15.27
2022-12-04T02:15:22.042Z,16.08
2022-12-04T02:17:58.124Z,17.65
2022-12-04T02:20:37.531Z,14.85
2022-12-04T02:23:19.526Z,14.95
2022-12-04T02:26:10.839Z,16.65
2022-12-04T02:28:58.954Z,13.50
2022-12-04T02:31:34.203Z,13.75
2022-12-04T02:34:14.642Z,17.38
2022-12-04T02:36:45.285Z,12.30
2022-12-04T02:39:23.393Z,14.15
2022-12-04T02:41:59.379Z,12.82
2022-12-04T02:44:29.771Z,12.45
2022-12-04T02:46:59.477Z,11.52
2022-12-04T02:49:30.805Z,13.10
2022-12-04T02:51:57.846Z,12.05
2022-12-04T02:54:34.687Z,12.77
2022-12-04T02:57:02.679Z,12.35
2022-12-04T02:59:37.259Z,10.13
2022-12-04T03:02:11.240Z,11.55
2022-12-04T03:04:38.717Z,11.30
2022-12-04T03:07:14.488Z,12.02
2022-12-04T03:09:45.262Z,12.05
2022-12-04T03:12:29.422Z,13.52
2022-12-04T03:15:08.266Z,12.27
2022-12-04T03:17:42.313Z,11.68
2022-12-04T03:20:10.509Z,12.73
2022-12-04T03:22:38.316Z,12.75
2022-12-04T03:25:05.935Z,11.13
2022-12-04T03:27:54.190Z,12.45
2022-12-04T03:30:22.281Z,9.73
2022-12-04T03:32:50.752Z,11.80
2022-12-04T03:35:24.507Z,11.85
2022-12-04T03:37:56.967Z,11.10
2022-12-04T03:40:46.367Z,11.50
2022-12-04T03:43:32.515Z,11.02
2022-12-04T03:46:10.375Z,13.32
2022-12-04T03:48:52.091Z,12.55
2022-12-04T03:51:23.090Z,12.45
2022-12-04T03:53:52.963Z,13.82
2022-12-04T03:56:25.152Z,14.70
2022-12-04T03:58:57.872Z,15.10
2022-12-04T04:01:28.358Z,14.75
2022-12-04T04:03:55.793Z,14.10
2022-12-04T04:06:25.234Z,14.13
2022-12-04T04:08:54.165Z,15.38
2022-12-04T04:11:29.492Z,12.98
2022-12-04T04:14:24.581Z,11.57
2022-12-04T04:17:19.407Z,14.55
2022-12-04T04:20:07.051Z,12.43
2022-12-04T04:22:55.975Z,10.55
2022-12-04T04:25:24.563Z,10.70
2022-12-04T04:27:55.458Z,10.10
2022-12-04T04:30:22.632Z,11.18
2022-12-04T04:32:55.777Z,10.60
2022-12-04T04:35:42.051Z,9.73
2022-12-04T04:38:38.189Z,12.38
2022-12-04T04:41:31.175Z,11.75
2022-12-04T04:44:03.393Z,14.52
2022-12-04T04:46:32.782Z,13.23
2022-12-04T04:49:01.722Z,12.40
2022-12-04T04:51:28.977Z,11.55
2022-12-04T04:53:57.097Z,10.70
2022-12-04T04:56:24.293Z,12.43
2022-12-04T04:58:51.232Z,12.13
2022-12-04T05:01:19.721Z,11.80
2022-12-04T05:03:46.699Z,12.88
2022-12-04T05:06:13.857Z,11.05
2022-12-04T05:08:40.928Z,12.13
2022-12-04T05:11:12.004Z,10.70
2022-12-04T05:13:39.026Z,11.02
2022-12-04T05:16:08.365Z,10.43
2022-12-04T05:18:35.461Z,11.38
2022-12-04T05:21:09.237Z,12.27
2022-12-04T05:23:36.225Z,11.43
2022-12-04T05:26:04.672Z,12.02
2022-12-04T05:28:31.950Z,14.48
2022-12-04T05:31:00.113Z,11.68
2022-12-04T05:33:27.254Z,11.80
2022-12-04T05:36:06.403Z,12.68
2022-12-04T05:38:33.641Z,12.52
2022-12-04T05:41:01.274Z,11.40
2022-12-04T05:43:28.280Z,11.15
2022-12-04T05:45:55.311Z,11.80
2022-12-04T05:48:22.308Z,12.35
2022-12-04T05:50:49.287Z,12.23
2022-12-04T05:53:16.392Z,13.65
2022-12-04T05:55:43.286Z,14.57
2022-12-04T05:58:10.275Z,13.13
2022-12-04T06:00:37.212Z,12.63
2022-12-04T06:03:04.228Z,17.70
2022-12-04T06:05:32.827Z,14.52
2022-12-04T06:08:00.036Z,13.60
2022-12-04T06:10:27.042Z,13.48
2022-12-04T06:12:57.839Z,12.20
2022-12-04T06:15:24.988Z,12.65
2022-12-04T06:17:51.956Z,13.50
2022-12-04T06:20:19.078Z,10.85
2022-12-04T06:22:46.388Z,10.70
2022-12-04T06:25:13.393Z,14.75
2022-12-04T06:27:40.362Z,11.90
2022-12-04T06:30:08.184Z,13.00
2022-12-04T06:32:35.182Z,10.50
2022-12-04T06:35:02.326Z,10.60
2022-12-04T06:37:29.311Z,13.00
2022-12-04T06:39:56.515Z,10.02
2022-12-04T06:42:23.758Z,11.52
2022-12-04T06:44:50.853Z,9.82
2022-12-04T06:47:17.885Z,9.63
2022-12-04T06:49:46.245Z,9.30
2022-12-04T06:52:34.964Z,8.45
2022-12-04T06:55:12.539Z,7.68
2022-12-04T06:57:39.564Z,8.27
2022-12-04T07:00:07.236Z,6.68
2022-12-04T07:02:34.237Z,6.80
2022-12-04T07:05:01.311Z,8.65
2022-12-04T07:07:30.505Z,9.63
2022-12-04T07:09:57.878Z,8.75
2022-12-04T07:12:25.085Z,9.25
2022-12-04T07:14:52.124Z,8.48
2022-12-04T07:17:19.121Z,7.70
2022-12-04T07:19:46.257Z,9.52
2022-12-04T07:22:15.410Z,7.82
2022-12-04T07:24:42.474Z,6.63
2022-12-04T07:27:11.982Z,7.60
2022-12-04T07:29:39.100Z,7.40
2022-12-04T07:32:06.105Z,7.43
2022-12-04T07:34:37.559Z,6.20
2022-12-04T07:37:04.517Z,5.90
2022-12-04T07:39:31.582Z,6.85
2022-12-04T07:41:58.546Z,8.45
2022-12-04T07:44:25.589Z,7.22
2022-12-04T07:46:52.553Z,5.85
2022-12-04T07:49:20.736Z,8.45
2022-12-04T07:51:50.206Z,7.95
2022-12-04T07:54:19.454Z,6.80
2022-12-04T07:56:46.458Z,6.43
2022-12-04T07:59:13.556Z,10.23
2022-12-04T08:01:40.884Z,7.65
2022-12-04T08:04:15.355Z,8.05
2022-12-04T08:06:42.640Z,8.18
2022-12-04T08:09:10.418Z,6.43
2022-12-04T08:11:37.818Z,8.88
2022-12-04T08:14:05.344Z,10.48
2022-12-04T08:16:33.438Z,6.63
2022-12-04T08:19:01.346Z,6.55
2022-12-04T08:21:29.346Z,8.32
2022-12-04T08:23:57.386Z,8.30
2022-12-04T08:26:25.298Z,9.00
2022-12-04T08:28:56.529Z,7.13
2022-12-04T08:31:25.237Z,7.38
2022-12-04T08:33:53.672Z,7.45
2022-12-04T08:36:23.630Z,7.80
2022-12-04T08:38:51.157Z,9.07
2022-12-04T08:41:23.933Z,5.65
2022-12-04T08:43:52.847Z,6.90
2022-12-04T08:46:19.834Z,6.72
2022-12-04T08:48:48.854Z,6.25
2022-12-04T08:51:20.641Z,7.13
2022-12-04T08:53:54.435Z,6.43
2022-12-04T08:56:24.237Z,8.82
2022-12-04T08:58:56.210Z,8.35
2022-12-04T09:01:23.407Z,7.95
2022-12-04T09:03:53.327Z,8.38
2022-12-04T09:06:25.343Z,6.72
2022-12-04T09:08:54.692Z,7.25
2022-12-04T09:11:23.319Z,7.35
2022-12-04T09:13:50.668Z,6.50
2022-12-04T09:16:19.390Z,7.20
2022-12-04T09:18:46.618Z,7.72
2022-12-04T09:21:14.940Z,7.85
2022-12-04T09:23:43.612Z,7.68
2022-12-04T09:26:19.722Z,8.35
2022-12-04T09:28:47.160Z,8.65
2022-12-04T09:31:14.314Z,9.40
2022-12-04T09:33:41.515Z,7.97
2022-12-04T09:36:08.639Z,9.55
2022-12-04T09:38:36.052Z,9.32
2022-12-04T09:41:08.561Z,10.25
2022-12-04T09:43:52.766Z,8.35
2022-12-04T09:46:35.828Z,8.18
2022-12-04T09:49:11.756Z,9.25
2022-12-04T09:51:40.853Z,8.32
2022-12-04T09:54:35.426Z,9.10
2022-12-04T09:57:24.610Z,8.10
2022-12-04T09:59:53.021Z,9.60
2022-12-04T10:02:41.152Z,7.93
2022-12-04T10:05:18.012Z,8.82
2022-12-04T10:08:16.230Z,7.63
2022-12-04T10:10:51.110Z,8.70
2022-12-04T10:13:43.655Z,7.32
2022-12-04T10:16:19.259Z,8.05
2022-12-04T10:19:11.071Z,7.78
2022-12-04T10:22:12.911Z,7.63
2022-12-04T10:24:56.816Z,7.70
2022-12-04T10:27:28.959Z,7.78
2022-12-04T10:30:02.590Z,8.50
2022-12-04T10:35:01.144Z,7.72
2022-12-04T10:37:28.171Z,6.82
2022-12-04T10:39:58.696Z,8.23
2022-12-04T10:42:35.915Z,7.50
2022-12-04T10:45:03.002Z,7.30
2022-12-04T10:47:30.071Z,7.53
2022-12-04T10:50:00.066Z,7.38
2022-12-04T10:52:27.121Z,7.25
2022-12-04T10:54:59.191Z,7.38
2022-12-04T10:57:43.524Z,7.00
2022-12-04T11:00:27.691Z,6.95
2022-12-04T11:02:55.762Z,7.05
2022-12-04T11:05:28.324Z,6.63
2022-12-04T11:07:55.612Z,6.82
2022-12-04T11:10:43.970Z,8.70
2022-12-04T11:13:10.820Z,6.85
2022-12-04T11:15:51.927Z,6.53
2022-12-04T11:18:20.877Z,7.07
2022-12-04T11:20:55.158Z,7.20
2022-12-04T11:23:22.327Z,7.57
2022-12-04T11:25:51.334Z,7.28
2022-12-04T11:28:42.150Z,8.60
2022-12-04T11:31:10.568Z,7.75
2022-12-04T11:33:53.076Z,8.80
2022-12-04T11:36:25.274Z,8.55
2022-12-04T11:38:53.097Z,7.40
2022-12-04T11:41:28.176Z,7.45
2022-12-04T11:44:00.029Z,7.20
2022-12-04T11:46:31.857Z,7.35
2022-12-04T11:48:59.356Z,7.65
2022-12-04T11:51:51.731Z,8.63
2022-12-04T11:54:57.619Z,8.15
2022-12-04T11:57:38.788Z,6.97
2022-12-04T12:00:13.782Z,7.53
2022-12-04T12:02:53.989Z,7.47
2022-12-04T12:05:33.513Z,7.80
2022-12-04T12:08:16.623Z,6.60
2022-12-04T12:10:44.989Z,6.73
2022-12-04T12:13:18.347Z,7.45
2022-12-04T12:16:27.223Z,8.25
2022-12-04T12:18:54.219Z,7.53
2022-12-04T12:21:55.173Z,5.97
2022-12-04T12:24:29.386Z,7.55
2022-12-04T12:27:29.972Z,7.90
2022-12-04T12:30:19.819Z,8.05
2022-12-04T12:33:09.946Z,6.70
2022-12-04T12:35:45.917Z,7.90
2022-12-04T12:38:17.565Z,6.75
2022-12-04T12:40:59.971Z,7.05
2022-12-04T12:43:36.888Z,6.55
2022-12-04T12:46:23.165Z,6.47
2022-12-04T12:49:06.901Z,8.13
2022-12-04T12:51:36.981Z,6.63
2022-12-04T12:54:30.800Z,7.68
2022-12-04T12:57:19.985Z,6.72
2022-12-04T12:59:49.400Z,7.22
2022-12-04T13:02:53.995Z,6.65
2022-12-04T13:05:26.146Z,7.60
2022-12-04T13:07:59.191Z,5.47
2022-12-04T13:10:30.579Z,6.07
2022-12-04T13:13:06.402Z,6.15
2022-12-04T13:16:08.559Z,6.25
2022-12-04T13:19:08.897Z,7.40
2022-12-04T13:22:01.157Z,5.60
2022-12-04T13:24:40.068Z,5.88
2022-12-04T13:27:13.351Z,6.93
2022-12-04T13:30:04.334Z,5.00
2022-12-04T13:32:57.842Z,6.15
2022-12-04T13:35:43.577Z,6.07
2022-12-04T13:38:13.523Z,5.15
2022-12-04T13:40:42.464Z,5.55
2022-12-04T13:43:24.608Z,5.78
2022-12-04T13:45:53.173Z,6.05
2022-12-04T13:48:31.320Z,5.00
2022-12-04T13:51:22.627Z,5.78
2022-12-04T13:53:59.675Z,6.13
2022-12-04T13:56:29.074Z,5.82
2022-12-04T13:59:01.240Z,5.18
2022-12-04T14:01:38.759Z,5.32
2022-12-04T14:04:06.274Z,5.65
2022-12-04T14:06:39.670Z,5.90
2022-12-04T14:09:09.527Z,5.57
2022-12-04T14:11:45.208Z,5.68
2022-12-04T14:14:23.087Z,5.93
2022-12-04T14:16:50.137Z,5.50
2022-12-04T14:19:40.686Z,5.82
2022-12-04T14:22:30.837Z,6.50
2022-12-04T14:25:19.600Z,6.05
2022-12-04T14:27:51.871Z,4.70
2022-12-04T14:30:30.142Z,5.70
2022-12-04T14:33:05.915Z,5.60
2022-12-04T14:35:32.930Z,5.85
2022-12-04T14:38:04.539Z,5.20
2022-12-04T14:40:37.594Z,6.00
2022-12-04T14:43:04.687Z,6.25
2022-12-04T14:45:47.282Z,5.88
2022-12-04T14:48:41.817Z,6.20
2022-12-04T14:51:11.796Z,5.63
2022-12-04T14:53:51.298Z,7.13
2022-12-04T14:56:39.098Z,6.40
2022-12-04T14:59:29.788Z,5.35
2022-12-04T15:01:56.989Z,5.90
2022-12-04T15:04:29.618Z,5.57
2022-12-04T15:07:00.162Z,6.60
2022-12-04T15:09:46.251Z,5.53
2022-12-04T15:12:33.854Z,5.97
2022-12-04T15:15:22.111Z,5.78
2022-12-04T15:18:11.526Z,5.28
2022-12-04T15:20:43.460Z,5.85
2022-12-04T15:23:14.349Z,5.38
2022-12-04T15:25:44.642Z,6.22
2022-12-04T15:28:24.350Z,6.97
2022-12-04T15:30:51.374Z,6.05
2022-12-04T15:33:29.681Z,6.38
2022-12-04T15:36:02.955Z,5.63
2022-12-04T15:38:29.976Z,5.32
2022-12-04T15:41:00.631Z,5.88
2022-12-04T15:43:32.282Z,5.82
2022-12-04T15:45:59.475Z,5.20
2022-12-04T15:48:30.521Z,5.78
2022-12-04T15:51:05.234Z,6.10
2022-12-04T15:53:44.778Z,6.63
2022-12-04T15:56:18.067Z,6.05
2022-12-04T15:59:03.274Z,5.22
2022-12-04T16:01:39.068Z,5.15
2022-12-04T16:04:06.063Z,5.90
2022-12-04T16:06:33.775Z,5.93
2022-12-04T16:09:22.219Z,7.40
2022-12-04T16:11:58.214Z,8.02
2022-12-04T16:14:25.279Z,7.28
2022-12-04T16:16:52.923Z,7.10
2022-12-04T16:19:34.261Z,6.15
2022-12-04T16:22:21.085Z,8.88
2022-12-04T16:24:48.188Z,5.93
2022-12-04T16:27:17.543Z,5.95
2022-12-04T16:29:45.602Z,5.60
2022-12-04T16:32:13.616Z,5.55
2022-12-04T16:34:40.681Z,5.45
2022-12-04T16:37:15.153Z,5.50
2022-12-04T16:39:42.201Z,6.55
2022-12-04T16:42:19.254Z,6.25
2022-12-04T16:44:46.309Z,6.28
2022-12-04T16:47:13.620Z,6.13
2022-12-04T16:49:40.890Z,6.40
2022-12-04T16:52:07.990Z,6.15
2022-12-04T16:54:35.032Z,6.53
2022-12-04T16:57:02.026Z,5.65
2022-12-04T16:59:29.628Z,6.75
2022-12-04T17:01:56.626Z,7.00
2022-12-04T17:04:23.808Z,6.82
2022-12-04T17:06:50.966Z,5.53
2022-12-04T17:09:17.974Z,5.65
2022-12-04T17:11:45.217Z,5.75
2022-12-04T17:14:12.286Z,6.80
2022-12-04T17:16:41.966Z,6.75
2022-12-04T17:19:09.898Z,5.10
2022-12-04T17:21:36.925Z,5.60
2022-12-04T17:24:04.136Z,5.78
2022-12-04T17:26:31.146Z,5.75
2022-12-04T17:28:58.094Z,4.88
2022-12-04T17:31:25.806Z,6.03
2022-12-04T17:33:52.932Z,6.22
2022-12-04T17:36:25.224Z,7.05
2022-12-04T17:38:56.157Z,5.47
2022-12-04T17:41:23.216Z,4.97
2022-12-04T17:43:50.203Z,5.00
2022-12-04T17:46:20.661Z,8.23
2022-12-04T17:48:48.140Z,7.72
2022-12-04T17:51:20.142Z,6.65
2022-12-04T17:53:47.289Z,9.00
2022-12-04T17:56:17.526Z,7.93
2022-12-04T17:58:44.728Z,8.68
2022-12-04T18:01:19.625Z,6.43
2022-12-04T18:03:53.741Z,6.53
2022-12-04T18:06:21.826Z,10.25
2022-12-04T18:08:50.403Z,11.15
2022-12-04T18:11:21.728Z,9.65
2022-12-04T18:13:59.566Z,11.23
2022-12-04T18:16:27.024Z,11.20
2022-12-04T18:18:55.422Z,22.77
2022-12-04T18:21:22.411Z,24.63
2022-12-04T18:23:49.603Z,11.95
2022-12-04T18:26:23.295Z,7.47
2022-12-04T18:31:18.245Z,10.02
2022-12-04T18:33:45.501Z,13.98
2022-12-04T18:36:14.822Z,13.10
2022-12-04T18:38:41.947Z,14.88
2022-12-04T18:41:10.189Z,12.23
2022-12-04T18:43:38.938Z,12.77
2022-12-04T18:46:08.238Z,12.85
2022-12-04T18:48:35.747Z,12.48
2022-12-04T18:51:02.934Z,16.02
2022-12-04T18:53:29.893Z,18.25
2022-12-04T18:55:56.774Z,16.70
2022-12-04T18:58:24.049Z,16.20
2022-12-04T19:00:52.006Z,16.20
2022-12-04T19:03:19.011Z,15.48
2022-12-04T19:05:52.017Z,15.45
2022-12-04T19:08:19.187Z,16.85
2022-12-04T19:10:46.171Z,18.05
2022-12-04T19:13:13.230Z,16.92
2022-12-04T19:15:43.867Z,18.08
2022-12-04T19:18:11.392Z,14.77
2022-12-04T19:20:47.968Z,16.00
2022-12-04T19:23:17.181Z,15.48
2022-12-04T19:25:44.154Z,15.07
2022-12-04T19:28:11.108Z,16.60
2022-12-04T19:30:38.037Z,21.77
2022-12-04T19:33:05.026Z,21.90
2022-12-04T19:35:32.032Z,20.33
2022-12-04T19:37:58.992Z,20.77
2022-12-04T19:40:25.890Z,21.63
2022-12-04T19:42:53.682Z,25.13
2022-12-04T19:45:22.831Z,23.52
2022-12-04T19:47:49.938Z,23.63
2022-12-04T19:50:16.893Z,24.98
2022-12-04T19:52:43.805Z,33.33
2022-12-04T19:55:10.803Z,38.45
2022-12-04T19:57:37.739Z,42.88
2022-12-04T20:00:05.950Z,39.67
2022-12-04T20:02:38.872Z,38.55
2022-12-04T20:05:06.151Z,39.30
2022-12-04T20:07:33.048Z,29.20
2022-12-04T20:10:00.294Z,30.60
2022-12-04T20:12:27.397Z,25.42
2022-12-04T20:14:54.407Z,20.20
2022-12-04T20:17:21.406Z,18.98
2022-12-04T20:19:48.310Z,19.95
2022-12-04T20:22:15.285Z,18.55
2022-12-04T20:24:43.169Z,16.70
2022-12-04T20:27:10.142Z,16.73
2022-12-04T20:29:37.082Z,16.75
2022-12-04T20:32:04.041Z,16.48
2022-12-04T20:34:30.917Z,16.30
2022-12-04T20:36:59.142Z,15.43
2022-12-04T20:39:26.076Z,15.80
2022-12-04T20:41:52.979Z,15.60
2022-12-04T20:44:20.307Z,14.35
2022-12-04T20:46:47.514Z,14.60
2022-12-04T20:49:21.301Z,16.02
2022-12-04T20:51:49.444Z,17.08
2022-12-04T20:54:18.365Z,15.73
2022-12-04T20:56:45.600Z,14.63
2022-12-04T20:59:13.518Z,15.75
2022-12-04T21:01:40.859Z,14.38
2022-12-04T21:04:07.897Z,15.38
2022-12-04T21:06:36.627Z,32.08
2022-12-04T21:09:08.304Z,25.15
2022-12-04T21:11:42.739Z,28.95
2022-12-04T21:14:36.575Z,22.45
2022-12-04T21:17:03.904Z,20.25
2022-12-04T21:19:30.927Z,18.02
2022-12-04T21:21:58.001Z,18.85
2022-12-04T21:24:26.731Z,16.30
2022-12-04T21:26:54.566Z,13.57
2022-12-04T21:29:21.783Z,15.77
2022-12-04T21:31:48.784Z,12.45
2022-12-04T21:34:17.054Z,14.25
2022-12-04T21:36:44.062Z,14.25
2022-12-04T21:39:11.082Z,14.27
2022-12-04T21:41:56.484Z,14.35
2022-12-04T21:44:23.586Z,12.93
2022-12-04T21:46:50.690Z,13.23
2022-12-04T21:49:18.160Z,14.40
2022-12-04T21:52:00.541Z,13.48
2022-12-04T21:54:28.268Z,12.07
2022-12-04T21:56:55.620Z,14.68
2022-12-04T21:59:22.916Z,14.55
2022-12-04T22:01:49.893Z,13.20
2022-12-04T22:04:16.978Z,15.10
2022-12-04T22:06:43.965Z,14.82
2022-12-04T22:09:11.809Z,15.05
2022-12-04T22:11:41.562Z,15.45
2022-12-04T22:14:09.190Z,13.90
2022-12-04T22:16:41.541Z,14.50
2022-12-04T22:19:09.392Z,12.20
2022-12-04T22:21:36.455Z,12.02
2022-12-04T22:24:03.845Z,14.30
2022-12-04T22:26:30.979Z,18.25
2022-12-04T22:28:58.062Z,12.80
2022-12-04T22:31:26.226Z,14.77
2022-12-04T22:33:54.074Z,11.70
2022-12-04T22:36:23.291Z,12.48
2022-12-04T22:41:37.520Z,11.88
2022-12-04T22:44:04.725Z,16.25
2022-12-04T22:46:31.910Z,13.00
2022-12-04T22:48:59.681Z,12.27
2022-12-04T22:51:27.389Z,12.13
2022-12-04T22:53:56.019Z,10.70
2022-12-04T22:56:28.511Z,12.05
2022-12-04T22:58:55.914Z,13.10
2022-12-04T23:01:27.087Z,12.73
2022-12-04T23:03:54.088Z,13.43
2022-12-04T23:06:26.093Z,10.25
2022-12-04T23:08:57.409Z,10.00
2022-12-04T23:11:24.646Z,8.48
2022-12-04T23:13:52.587Z,10.82
2022-12-04T23:16:20.850Z,11.25
2022-12-04T23:18:48.265Z,9.63
2022-12-04T23:21:15.677Z,9.88
2022-12-04T23:23:45.353Z,7.88
2022-12-04T23:26:14.635Z,10.18
2022-12-04T23:28:41.627Z,8.70
2022-12-04T23:31:08.840Z,13.93
2022-12-04T23:33:35.872Z,8.57
2022-12-04T23:36:03.204Z,9.60
2022-12-04T23:38:30.328Z,8.60
2022-12-04T23:41:18.435Z,9.80
2022-12-04T23:43:45.451Z,8.85
2022-12-04T23:46:13.224Z,11.85
2022-12-04T23:48:41.294Z,7.95
2022-12-04T23:51:08.697Z,7.68
2022-12-04T23:53:35.837Z,9.07
2022-12-04T23:56:07.168Z,9.80
2022-12-04T23:58:34.406Z,10.75
